<?xml version="1.0" encoding="UTF-8" standalone="no" ?>
<gpx xmlns="http://www.topografix.com/GPX/1/1" xmlns:xsi="http://www.w3.org/2001/XMLSchema-instance" xsi:schemaLocation="http://www.topografix.com/GPX/1/1 http://www.topografix.com/GPX/1/1/gpx.xsd" version="1.1" creator="VisuGPX - https://www.visugpx.com">
  <metadata>
    <name>13-cassis-cap gros</name>
    <desc><![CDATA[13-cassis-cap gros : gardiole]]></desc>
  </metadata>
  <trk>
    <name><![CDATA[2015-04-12- Cassis Gardiole Cap Gros]]></name>
    <trkseg>
      <trkpt lat="43.22758" lon="5.50381">
        <ele>245.5</ele>
        <time>2015-04-12T07:49:04Z</time>
      </trkpt>
      <trkpt lat="43.22742" lon="5.50392">
        <ele>244.2</ele>
        <time>2015-04-12T07:57:48Z</time>
      </trkpt>
      <trkpt lat="43.22731" lon="5.5041">
        <ele>244</ele>
        <time>2015-04-12T07:58:18Z</time>
      </trkpt>
      <trkpt lat="43.22715" lon="5.50407">
        <ele>243.1</ele>
        <time>2015-04-12T07:58:40Z</time>
      </trkpt>
      <trkpt lat="43.22703" lon="5.5039">
        <ele>243</ele>
        <time>2015-04-12T07:58:52Z</time>
      </trkpt>
      <trkpt lat="43.22692" lon="5.50371">
        <ele>241.7</ele>
        <time>2015-04-12T07:59:09Z</time>
      </trkpt>
      <trkpt lat="43.22682" lon="5.50351">
        <ele>240.2</ele>
        <time>2015-04-12T07:59:24Z</time>
      </trkpt>
      <trkpt lat="43.2267" lon="5.50335">
        <ele>240.6</ele>
        <time>2015-04-12T07:59:36Z</time>
      </trkpt>
      <trkpt lat="43.22659" lon="5.50317">
        <ele>239.7</ele>
        <time>2015-04-12T07:59:53Z</time>
      </trkpt>
      <trkpt lat="43.22648" lon="5.503">
        <ele>239.2</ele>
        <time>2015-04-12T08:00:11Z</time>
      </trkpt>
      <trkpt lat="43.22635" lon="5.50285">
        <ele>237.9</ele>
        <time>2015-04-12T08:00:26Z</time>
      </trkpt>
      <trkpt lat="43.22618" lon="5.50277">
        <ele>236.7</ele>
        <time>2015-04-12T08:00:42Z</time>
      </trkpt>
      <trkpt lat="43.226" lon="5.50277">
        <ele>235</ele>
        <time>2015-04-12T08:00:57Z</time>
      </trkpt>
      <trkpt lat="43.22583" lon="5.50279">
        <ele>233.9</ele>
        <time>2015-04-12T08:01:11Z</time>
      </trkpt>
      <trkpt lat="43.22566" lon="5.50279">
        <ele>233.1</ele>
        <time>2015-04-12T08:01:25Z</time>
      </trkpt>
      <trkpt lat="43.22548" lon="5.50276">
        <ele>231.5</ele>
        <time>2015-04-12T08:01:41Z</time>
      </trkpt>
      <trkpt lat="43.22531" lon="5.50277">
        <ele>230.6</ele>
        <time>2015-04-12T08:01:56Z</time>
      </trkpt>
      <trkpt lat="43.22513" lon="5.50277">
        <ele>229.8</ele>
        <time>2015-04-12T08:02:15Z</time>
      </trkpt>
      <trkpt lat="43.22496" lon="5.50277">
        <ele>228.9</ele>
        <time>2015-04-12T08:02:38Z</time>
      </trkpt>
      <trkpt lat="43.22478" lon="5.50278">
        <ele>227.4</ele>
        <time>2015-04-12T08:02:53Z</time>
      </trkpt>
      <trkpt lat="43.2246" lon="5.50277">
        <ele>226.6</ele>
        <time>2015-04-12T08:03:08Z</time>
      </trkpt>
      <trkpt lat="43.22443" lon="5.50279">
        <ele>225.7</ele>
        <time>2015-04-12T08:03:24Z</time>
      </trkpt>
      <trkpt lat="43.22426" lon="5.50281">
        <ele>224.9</ele>
        <time>2015-04-12T08:03:39Z</time>
      </trkpt>
      <trkpt lat="43.22409" lon="5.50272">
        <ele>223.7</ele>
        <time>2015-04-12T08:03:54Z</time>
      </trkpt>
      <trkpt lat="43.22399" lon="5.50253">
        <ele>223</ele>
        <time>2015-04-12T08:04:10Z</time>
      </trkpt>
      <trkpt lat="43.22398" lon="5.50229">
        <ele>221.3</ele>
        <time>2015-04-12T08:04:24Z</time>
      </trkpt>
      <trkpt lat="43.22402" lon="5.50205">
        <ele>220.5</ele>
        <time>2015-04-12T08:04:40Z</time>
      </trkpt>
      <trkpt lat="43.22403" lon="5.50181">
        <ele>219.5</ele>
        <time>2015-04-12T08:04:56Z</time>
      </trkpt>
      <trkpt lat="43.2239" lon="5.50163">
        <ele>217.6</ele>
        <time>2015-04-12T08:05:12Z</time>
      </trkpt>
      <trkpt lat="43.22372" lon="5.50162">
        <ele>215.3</ele>
        <time>2015-04-12T08:05:28Z</time>
      </trkpt>
      <trkpt lat="43.22355" lon="5.50163">
        <ele>214.1</ele>
        <time>2015-04-12T08:05:42Z</time>
      </trkpt>
      <trkpt lat="43.22338" lon="5.50168">
        <ele>212.4</ele>
        <time>2015-04-12T08:05:57Z</time>
      </trkpt>
      <trkpt lat="43.22321" lon="5.50173">
        <ele>210.3</ele>
        <time>2015-04-12T08:06:12Z</time>
      </trkpt>
      <trkpt lat="43.22305" lon="5.50183">
        <ele>208.5</ele>
        <time>2015-04-12T08:06:28Z</time>
      </trkpt>
      <trkpt lat="43.22288" lon="5.50182">
        <ele>206.7</ele>
        <time>2015-04-12T08:06:57Z</time>
      </trkpt>
      <trkpt lat="43.22272" lon="5.50188">
        <ele>204.4</ele>
        <time>2015-04-12T08:07:11Z</time>
      </trkpt>
      <trkpt lat="43.22254" lon="5.50188">
        <ele>203.2</ele>
        <time>2015-04-12T08:07:26Z</time>
      </trkpt>
      <trkpt lat="43.22246" lon="5.50168">
        <ele>203.2</ele>
        <time>2015-04-12T08:07:40Z</time>
      </trkpt>
      <trkpt lat="43.22237" lon="5.50148">
        <ele>205.1</ele>
        <time>2015-04-12T08:07:56Z</time>
      </trkpt>
      <trkpt lat="43.22225" lon="5.50131">
        <ele>206</ele>
        <time>2015-04-12T08:08:12Z</time>
      </trkpt>
      <trkpt lat="43.22213" lon="5.50113">
        <ele>206.6</ele>
        <time>2015-04-12T08:08:28Z</time>
      </trkpt>
      <trkpt lat="43.22195" lon="5.5011">
        <ele>204.2</ele>
        <time>2015-04-12T08:08:46Z</time>
      </trkpt>
      <trkpt lat="43.22178" lon="5.50109">
        <ele>200.3</ele>
        <time>2015-04-12T08:09:07Z</time>
      </trkpt>
      <trkpt lat="43.2216" lon="5.50108">
        <ele>196.6</ele>
        <time>2015-04-12T08:09:27Z</time>
      </trkpt>
      <trkpt lat="43.22143" lon="5.50114">
        <ele>193.3</ele>
        <time>2015-04-12T08:09:49Z</time>
      </trkpt>
      <trkpt lat="43.22134" lon="5.50094">
        <ele>191.4</ele>
        <time>2015-04-12T08:10:08Z</time>
      </trkpt>
      <trkpt lat="43.2213" lon="5.50071">
        <ele>190.3</ele>
        <time>2015-04-12T08:10:24Z</time>
      </trkpt>
      <trkpt lat="43.22127" lon="5.50048">
        <ele>189.2</ele>
        <time>2015-04-12T08:10:39Z</time>
      </trkpt>
      <trkpt lat="43.22124" lon="5.50024">
        <ele>188.7</ele>
        <time>2015-04-12T08:10:54Z</time>
      </trkpt>
      <trkpt lat="43.22122" lon="5.5">
        <ele>187.9</ele>
        <time>2015-04-12T08:11:09Z</time>
      </trkpt>
      <trkpt lat="43.22119" lon="5.49977">
        <ele>186.6</ele>
        <time>2015-04-12T08:11:25Z</time>
      </trkpt>
      <trkpt lat="43.22119" lon="5.49952">
        <ele>185.7</ele>
        <time>2015-04-12T08:11:41Z</time>
      </trkpt>
      <trkpt lat="43.22129" lon="5.49932">
        <ele>184.4</ele>
        <time>2015-04-12T08:11:56Z</time>
      </trkpt>
      <trkpt lat="43.22137" lon="5.49911">
        <ele>182.5</ele>
        <time>2015-04-12T08:12:12Z</time>
      </trkpt>
      <trkpt lat="43.22136" lon="5.49887">
        <ele>183.8</ele>
        <time>2015-04-12T08:12:30Z</time>
      </trkpt>
      <trkpt lat="43.22125" lon="5.49867">
        <ele>185.9</ele>
        <time>2015-04-12T08:12:56Z</time>
      </trkpt>
      <trkpt lat="43.22109" lon="5.49874">
        <ele>188</ele>
        <time>2015-04-12T08:13:14Z</time>
      </trkpt>
      <trkpt lat="43.22091" lon="5.49876">
        <ele>189</ele>
        <time>2015-04-12T08:13:31Z</time>
      </trkpt>
      <trkpt lat="43.22074" lon="5.4988">
        <ele>190.2</ele>
        <time>2015-04-12T08:13:47Z</time>
      </trkpt>
      <trkpt lat="43.22057" lon="5.49886">
        <ele>191.1</ele>
        <time>2015-04-12T08:14:03Z</time>
      </trkpt>
      <trkpt lat="43.2204" lon="5.49893">
        <ele>190.5</ele>
        <time>2015-04-12T08:14:20Z</time>
      </trkpt>
      <trkpt lat="43.22025" lon="5.49903">
        <ele>190.8</ele>
        <time>2015-04-12T08:14:35Z</time>
      </trkpt>
      <trkpt lat="43.22008" lon="5.49911">
        <ele>190.1</ele>
        <time>2015-04-12T08:14:49Z</time>
      </trkpt>
      <trkpt lat="43.21992" lon="5.49916">
        <ele>189.6</ele>
        <time>2015-04-12T08:15:02Z</time>
      </trkpt>
      <trkpt lat="43.21975" lon="5.49918">
        <ele>188.8</ele>
        <time>2015-04-12T08:15:17Z</time>
      </trkpt>
      <trkpt lat="43.21957" lon="5.49914">
        <ele>187.9</ele>
        <time>2015-04-12T08:15:32Z</time>
      </trkpt>
      <trkpt lat="43.21943" lon="5.49901">
        <ele>187.1</ele>
        <time>2015-04-12T08:15:47Z</time>
      </trkpt>
      <trkpt lat="43.21929" lon="5.49885">
        <ele>186.5</ele>
        <time>2015-04-12T08:16:03Z</time>
      </trkpt>
      <trkpt lat="43.21915" lon="5.49871">
        <ele>185.4</ele>
        <time>2015-04-12T08:16:18Z</time>
      </trkpt>
      <trkpt lat="43.21901" lon="5.49858">
        <ele>184.6</ele>
        <time>2015-04-12T08:16:33Z</time>
      </trkpt>
      <trkpt lat="43.21887" lon="5.49843">
        <ele>182.9</ele>
        <time>2015-04-12T08:18:53Z</time>
      </trkpt>
      <trkpt lat="43.21878" lon="5.49822">
        <ele>181.5</ele>
        <time>2015-04-12T08:19:10Z</time>
      </trkpt>
      <trkpt lat="43.2188" lon="5.49798">
        <ele>180.1</ele>
        <time>2015-04-12T08:19:26Z</time>
      </trkpt>
      <trkpt lat="43.21891" lon="5.49779">
        <ele>179.3</ele>
        <time>2015-04-12T08:19:42Z</time>
      </trkpt>
      <trkpt lat="43.21902" lon="5.49761">
        <ele>177.8</ele>
        <time>2015-04-12T08:19:57Z</time>
      </trkpt>
      <trkpt lat="43.21899" lon="5.49737">
        <ele>175.2</ele>
        <time>2015-04-12T08:20:17Z</time>
      </trkpt>
      <trkpt lat="43.21881" lon="5.49733">
        <ele>172.8</ele>
        <time>2015-04-12T08:20:33Z</time>
      </trkpt>
      <trkpt lat="43.21864" lon="5.49734">
        <ele>170.1</ele>
        <time>2015-04-12T08:20:49Z</time>
      </trkpt>
      <trkpt lat="43.21846" lon="5.49733">
        <ele>167.8</ele>
        <time>2015-04-12T08:21:04Z</time>
      </trkpt>
      <trkpt lat="43.21828" lon="5.49734">
        <ele>166</ele>
        <time>2015-04-12T08:21:20Z</time>
      </trkpt>
      <trkpt lat="43.21812" lon="5.49739">
        <ele>164.6</ele>
        <time>2015-04-12T08:21:35Z</time>
      </trkpt>
      <trkpt lat="43.21815" lon="5.49716">
        <ele>160</ele>
        <time>2015-04-12T08:22:09Z</time>
      </trkpt>
      <trkpt lat="43.21827" lon="5.49698">
        <ele>156.6</ele>
        <time>2015-04-12T08:22:26Z</time>
      </trkpt>
      <trkpt lat="43.21838" lon="5.49679">
        <ele>153.3</ele>
        <time>2015-04-12T08:22:43Z</time>
      </trkpt>
      <trkpt lat="43.21846" lon="5.49659">
        <ele>150</ele>
        <time>2015-04-12T08:23:00Z</time>
      </trkpt>
      <trkpt lat="43.21857" lon="5.49639">
        <ele>147.7</ele>
        <time>2015-04-12T08:23:17Z</time>
      </trkpt>
      <trkpt lat="43.21871" lon="5.49623">
        <ele>143.6</ele>
        <time>2015-04-12T08:23:36Z</time>
      </trkpt>
      <trkpt lat="43.21886" lon="5.49612">
        <ele>141.1</ele>
        <time>2015-04-12T08:23:54Z</time>
      </trkpt>
      <trkpt lat="43.2187" lon="5.49602">
        <ele>138.2</ele>
        <time>2015-04-12T08:24:15Z</time>
      </trkpt>
      <trkpt lat="43.21853" lon="5.49607">
        <ele>137</ele>
        <time>2015-04-12T08:24:33Z</time>
      </trkpt>
      <trkpt lat="43.21837" lon="5.49616">
        <ele>136</ele>
        <time>2015-04-12T08:24:49Z</time>
      </trkpt>
      <trkpt lat="43.21825" lon="5.49633">
        <ele>135.1</ele>
        <time>2015-04-12T08:25:06Z</time>
      </trkpt>
      <trkpt lat="43.21811" lon="5.49646">
        <ele>133.9</ele>
        <time>2015-04-12T08:25:22Z</time>
      </trkpt>
      <trkpt lat="43.21793" lon="5.49649">
        <ele>132.3</ele>
        <time>2015-04-12T08:25:40Z</time>
      </trkpt>
      <trkpt lat="43.21783" lon="5.49669">
        <ele>130.6</ele>
        <time>2015-04-12T08:26:00Z</time>
      </trkpt>
      <trkpt lat="43.21769" lon="5.49683">
        <ele>129.4</ele>
        <time>2015-04-12T08:26:12Z</time>
      </trkpt>
      <trkpt lat="43.21752" lon="5.49677">
        <ele>128.2</ele>
        <time>2015-04-12T08:26:27Z</time>
      </trkpt>
      <trkpt lat="43.21743" lon="5.49658">
        <ele>126.4</ele>
        <time>2015-04-12T08:26:42Z</time>
      </trkpt>
      <trkpt lat="43.21736" lon="5.49637">
        <ele>125.5</ele>
        <time>2015-04-12T08:26:58Z</time>
      </trkpt>
      <trkpt lat="43.21727" lon="5.49616">
        <ele>124.8</ele>
        <time>2015-04-12T08:27:14Z</time>
      </trkpt>
      <trkpt lat="43.21719" lon="5.49594">
        <ele>122.8</ele>
        <time>2015-04-12T08:27:30Z</time>
      </trkpt>
      <trkpt lat="43.21712" lon="5.49573">
        <ele>120.9</ele>
        <time>2015-04-12T08:27:45Z</time>
      </trkpt>
      <trkpt lat="43.21701" lon="5.49554">
        <ele>119.7</ele>
        <time>2015-04-12T08:28:02Z</time>
      </trkpt>
      <trkpt lat="43.21691" lon="5.49534">
        <ele>117.8</ele>
        <time>2015-04-12T08:28:18Z</time>
      </trkpt>
      <trkpt lat="43.21678" lon="5.49517">
        <ele>116.6</ele>
        <time>2015-04-12T08:28:34Z</time>
      </trkpt>
      <trkpt lat="43.21667" lon="5.49499">
        <ele>115.5</ele>
        <time>2015-04-12T08:28:49Z</time>
      </trkpt>
      <trkpt lat="43.21658" lon="5.49479">
        <ele>114.4</ele>
        <time>2015-04-12T08:29:05Z</time>
      </trkpt>
      <trkpt lat="43.21648" lon="5.49458">
        <ele>114</ele>
        <time>2015-04-12T08:29:22Z</time>
      </trkpt>
      <trkpt lat="43.21632" lon="5.4945">
        <ele>112.2</ele>
        <time>2015-04-12T08:29:38Z</time>
      </trkpt>
      <trkpt lat="43.21616" lon="5.49455">
        <ele>110.7</ele>
        <time>2015-04-12T08:29:54Z</time>
      </trkpt>
      <trkpt lat="43.21599" lon="5.49456">
        <ele>109.4</ele>
        <time>2015-04-12T08:30:09Z</time>
      </trkpt>
      <trkpt lat="43.21582" lon="5.49447">
        <ele>107.6</ele>
        <time>2015-04-12T08:30:25Z</time>
      </trkpt>
      <trkpt lat="43.21566" lon="5.49437">
        <ele>105.9</ele>
        <time>2015-04-12T08:30:41Z</time>
      </trkpt>
      <trkpt lat="43.21553" lon="5.49423">
        <ele>104.7</ele>
        <time>2015-04-12T08:30:57Z</time>
      </trkpt>
      <trkpt lat="43.21537" lon="5.49414">
        <ele>103.1</ele>
        <time>2015-04-12T08:31:12Z</time>
      </trkpt>
      <trkpt lat="43.21519" lon="5.49413">
        <ele>101.5</ele>
        <time>2015-04-12T08:31:29Z</time>
      </trkpt>
      <trkpt lat="43.21503" lon="5.49422">
        <ele>99.6</ele>
        <time>2015-04-12T08:31:46Z</time>
      </trkpt>
      <trkpt lat="43.21486" lon="5.49426">
        <ele>97.9</ele>
        <time>2015-04-12T08:32:12Z</time>
      </trkpt>
      <trkpt lat="43.21485" lon="5.49402">
        <ele>100.1</ele>
        <time>2015-04-12T08:33:29Z</time>
      </trkpt>
      <trkpt lat="43.21472" lon="5.49385">
        <ele>108</ele>
        <time>2015-04-12T08:34:27Z</time>
      </trkpt>
      <trkpt lat="43.21462" lon="5.49364">
        <ele>119</ele>
        <time>2015-04-12T08:35:48Z</time>
      </trkpt>
      <trkpt lat="43.21454" lon="5.49343">
        <ele>126.6</ele>
        <time>2015-04-12T08:36:47Z</time>
      </trkpt>
      <trkpt lat="43.21437" lon="5.49347">
        <ele>137</ele>
        <time>2015-04-12T08:38:23Z</time>
      </trkpt>
      <trkpt lat="43.21421" lon="5.49358">
        <ele>141.5</ele>
        <time>2015-04-12T08:38:58Z</time>
      </trkpt>
      <trkpt lat="43.21404" lon="5.4936">
        <ele>148.8</ele>
        <time>2015-04-12T08:40:05Z</time>
      </trkpt>
      <trkpt lat="43.2139" lon="5.49375">
        <ele>153.1</ele>
        <time>2015-04-12T08:40:38Z</time>
      </trkpt>
      <trkpt lat="43.21375" lon="5.49387">
        <ele>155.4</ele>
        <time>2015-04-12T08:41:02Z</time>
      </trkpt>
      <trkpt lat="43.21359" lon="5.49399">
        <ele>156.4</ele>
        <time>2015-04-12T08:41:21Z</time>
      </trkpt>
      <trkpt lat="43.21342" lon="5.494">
        <ele>157.1</ele>
        <time>2015-04-12T08:41:42Z</time>
      </trkpt>
      <trkpt lat="43.21324" lon="5.49399">
        <ele>157.7</ele>
        <time>2015-04-12T08:42:02Z</time>
      </trkpt>
      <trkpt lat="43.21307" lon="5.49397">
        <ele>157.5</ele>
        <time>2015-04-12T08:42:26Z</time>
      </trkpt>
      <trkpt lat="43.21289" lon="5.49395">
        <ele>157</ele>
        <time>2015-04-12T08:45:20Z</time>
      </trkpt>
      <trkpt lat="43.21272" lon="5.49388">
        <ele>156.9</ele>
        <time>2015-04-12T08:45:39Z</time>
      </trkpt>
      <trkpt lat="43.21259" lon="5.49372">
        <ele>157.4</ele>
        <time>2015-04-12T08:45:59Z</time>
      </trkpt>
      <trkpt lat="43.21245" lon="5.49356">
        <ele>158</ele>
        <time>2015-04-12T08:46:18Z</time>
      </trkpt>
      <trkpt lat="43.21233" lon="5.49339">
        <ele>158.8</ele>
        <time>2015-04-12T08:46:37Z</time>
      </trkpt>
      <trkpt lat="43.21221" lon="5.49323">
        <ele>158.8</ele>
        <time>2015-04-12T08:46:51Z</time>
      </trkpt>
      <trkpt lat="43.21207" lon="5.49306">
        <ele>159.3</ele>
        <time>2015-04-12T08:47:07Z</time>
      </trkpt>
      <trkpt lat="43.21196" lon="5.49287">
        <ele>159.6</ele>
        <time>2015-04-12T08:47:23Z</time>
      </trkpt>
      <trkpt lat="43.21185" lon="5.49268">
        <ele>159.7</ele>
        <time>2015-04-12T08:47:38Z</time>
      </trkpt>
      <trkpt lat="43.21175" lon="5.4925">
        <ele>159.7</ele>
        <time>2015-04-12T08:47:53Z</time>
      </trkpt>
      <trkpt lat="43.21166" lon="5.49229">
        <ele>158.5</ele>
        <time>2015-04-12T08:48:10Z</time>
      </trkpt>
      <trkpt lat="43.21165" lon="5.49205">
        <ele>157.7</ele>
        <time>2015-04-12T08:48:26Z</time>
      </trkpt>
      <trkpt lat="43.21167" lon="5.49181">
        <ele>157.3</ele>
        <time>2015-04-12T08:48:42Z</time>
      </trkpt>
      <trkpt lat="43.21168" lon="5.49157">
        <ele>156.6</ele>
        <time>2015-04-12T08:48:59Z</time>
      </trkpt>
      <trkpt lat="43.21174" lon="5.49133">
        <ele>155.1</ele>
        <time>2015-04-12T08:49:16Z</time>
      </trkpt>
      <trkpt lat="43.2118" lon="5.49111">
        <ele>155.3</ele>
        <time>2015-04-12T08:49:33Z</time>
      </trkpt>
      <trkpt lat="43.21184" lon="5.49088">
        <ele>154.6</ele>
        <time>2015-04-12T08:49:49Z</time>
      </trkpt>
      <trkpt lat="43.21187" lon="5.49065">
        <ele>154</ele>
        <time>2015-04-12T08:50:05Z</time>
      </trkpt>
      <trkpt lat="43.21196" lon="5.49044">
        <ele>153.1</ele>
        <time>2015-04-12T08:50:22Z</time>
      </trkpt>
      <trkpt lat="43.21186" lon="5.49023">
        <ele>150.6</ele>
        <time>2015-04-12T08:50:45Z</time>
      </trkpt>
      <trkpt lat="43.21171" lon="5.49033">
        <ele>150.4</ele>
        <time>2015-04-12T08:51:00Z</time>
      </trkpt>
      <trkpt lat="43.21155" lon="5.49044">
        <ele>150.9</ele>
        <time>2015-04-12T08:51:18Z</time>
      </trkpt>
      <trkpt lat="43.21139" lon="5.49054">
        <ele>152.2</ele>
        <time>2015-04-12T08:51:35Z</time>
      </trkpt>
      <trkpt lat="43.21121" lon="5.4906">
        <ele>153.1</ele>
        <time>2015-04-12T08:51:50Z</time>
      </trkpt>
      <trkpt lat="43.21106" lon="5.49069">
        <ele>154.5</ele>
        <time>2015-04-12T08:52:06Z</time>
      </trkpt>
      <trkpt lat="43.2109" lon="5.49077">
        <ele>155</ele>
        <time>2015-04-12T08:52:22Z</time>
      </trkpt>
      <trkpt lat="43.21073" lon="5.49087">
        <ele>155.5</ele>
        <time>2015-04-12T08:52:38Z</time>
      </trkpt>
      <trkpt lat="43.21058" lon="5.49096">
        <ele>155.7</ele>
        <time>2015-04-12T08:52:53Z</time>
      </trkpt>
      <trkpt lat="43.21041" lon="5.49104">
        <ele>155.9</ele>
        <time>2015-04-12T08:53:11Z</time>
      </trkpt>
      <trkpt lat="43.21024" lon="5.4911">
        <ele>155.3</ele>
        <time>2015-04-12T08:53:54Z</time>
      </trkpt>
      <trkpt lat="43.21015" lon="5.49088">
        <ele>150.8</ele>
        <time>2015-04-12T08:58:20Z</time>
      </trkpt>
      <trkpt lat="43.2102" lon="5.49065">
        <ele>148.8</ele>
        <time>2015-04-12T08:58:38Z</time>
      </trkpt>
      <trkpt lat="43.21023" lon="5.49042">
        <ele>147.9</ele>
        <time>2015-04-12T08:58:55Z</time>
      </trkpt>
      <trkpt lat="43.2103" lon="5.49022">
        <ele>146.5</ele>
        <time>2015-04-12T08:59:12Z</time>
      </trkpt>
      <trkpt lat="43.21043" lon="5.49004">
        <ele>145</ele>
        <time>2015-04-12T08:59:30Z</time>
      </trkpt>
      <trkpt lat="43.21054" lon="5.48985">
        <ele>142.2</ele>
        <time>2015-04-12T08:59:49Z</time>
      </trkpt>
      <trkpt lat="43.21062" lon="5.48964">
        <ele>140.2</ele>
        <time>2015-04-12T09:00:05Z</time>
      </trkpt>
      <trkpt lat="43.21069" lon="5.48943">
        <ele>139.7</ele>
        <time>2015-04-12T09:00:22Z</time>
      </trkpt>
      <trkpt lat="43.21072" lon="5.4892">
        <ele>139.8</ele>
        <time>2015-04-12T09:00:38Z</time>
      </trkpt>
      <trkpt lat="43.21071" lon="5.48896">
        <ele>138.5</ele>
        <time>2015-04-12T09:00:56Z</time>
      </trkpt>
      <trkpt lat="43.21056" lon="5.48883">
        <ele>133.6</ele>
        <time>2015-04-12T09:01:19Z</time>
      </trkpt>
      <trkpt lat="43.21049" lon="5.48861">
        <ele>129.6</ele>
        <time>2015-04-12T09:01:39Z</time>
      </trkpt>
      <trkpt lat="43.2106" lon="5.48843">
        <ele>126.8</ele>
        <time>2015-04-12T09:01:56Z</time>
      </trkpt>
      <trkpt lat="43.21075" lon="5.48829">
        <ele>123.6</ele>
        <time>2015-04-12T09:02:15Z</time>
      </trkpt>
      <trkpt lat="43.21088" lon="5.48814">
        <ele>121.7</ele>
        <time>2015-04-12T09:02:31Z</time>
      </trkpt>
      <trkpt lat="43.21102" lon="5.48799">
        <ele>120.3</ele>
        <time>2015-04-12T09:02:48Z</time>
      </trkpt>
      <trkpt lat="43.21087" lon="5.48788">
        <ele>116.1</ele>
        <time>2015-04-12T09:05:35Z</time>
      </trkpt>
      <trkpt lat="43.21069" lon="5.4878">
        <ele>116.5</ele>
        <time>2015-04-12T09:06:05Z</time>
      </trkpt>
      <trkpt lat="43.21053" lon="5.48772">
        <ele>118.4</ele>
        <time>2015-04-12T09:06:24Z</time>
      </trkpt>
      <trkpt lat="43.21035" lon="5.4877">
        <ele>121.2</ele>
        <time>2015-04-12T09:06:47Z</time>
      </trkpt>
      <trkpt lat="43.21018" lon="5.48777">
        <ele>125.1</ele>
        <time>2015-04-12T09:07:12Z</time>
      </trkpt>
      <trkpt lat="43.21005" lon="5.48794">
        <ele>127.7</ele>
        <time>2015-04-12T09:07:32Z</time>
      </trkpt>
      <trkpt lat="43.20992" lon="5.48811">
        <ele>132.5</ele>
        <time>2015-04-12T09:08:08Z</time>
      </trkpt>
      <trkpt lat="43.20979" lon="5.48825">
        <ele>137.4</ele>
        <time>2015-04-12T09:08:38Z</time>
      </trkpt>
      <trkpt lat="43.20965" lon="5.48841">
        <ele>143.2</ele>
        <time>2015-04-12T09:09:15Z</time>
      </trkpt>
      <trkpt lat="43.2095" lon="5.48854">
        <ele>147.3</ele>
        <time>2015-04-12T09:09:45Z</time>
      </trkpt>
      <trkpt lat="43.20949" lon="5.4883">
        <ele>153.7</ele>
        <time>2015-04-12T09:10:40Z</time>
      </trkpt>
      <trkpt lat="43.20949" lon="5.48805">
        <ele>157.6</ele>
        <time>2015-04-12T09:11:14Z</time>
      </trkpt>
      <trkpt lat="43.2095" lon="5.48781">
        <ele>162.9</ele>
        <time>2015-04-12T09:11:47Z</time>
      </trkpt>
      <trkpt lat="43.20955" lon="5.48757">
        <ele>167.2</ele>
        <time>2015-04-12T09:12:18Z</time>
      </trkpt>
      <trkpt lat="43.20958" lon="5.48733">
        <ele>172</ele>
        <time>2015-04-12T09:12:52Z</time>
      </trkpt>
      <trkpt lat="43.20958" lon="5.48709">
        <ele>176</ele>
        <time>2015-04-12T09:13:21Z</time>
      </trkpt>
      <trkpt lat="43.20959" lon="5.48684">
        <ele>178.9</ele>
        <time>2015-04-12T09:14:09Z</time>
      </trkpt>
      <trkpt lat="43.20962" lon="5.48661">
        <ele>181.7</ele>
        <time>2015-04-12T09:14:35Z</time>
      </trkpt>
      <trkpt lat="43.2097" lon="5.48639">
        <ele>185.2</ele>
        <time>2015-04-12T09:15:01Z</time>
      </trkpt>
      <trkpt lat="43.20975" lon="5.48615">
        <ele>188.7</ele>
        <time>2015-04-12T09:15:30Z</time>
      </trkpt>
      <trkpt lat="43.20981" lon="5.48593">
        <ele>191.7</ele>
        <time>2015-04-12T09:15:57Z</time>
      </trkpt>
      <trkpt lat="43.2099" lon="5.48572">
        <ele>195</ele>
        <time>2015-04-12T09:16:24Z</time>
      </trkpt>
      <trkpt lat="43.21001" lon="5.48554">
        <ele>198.2</ele>
        <time>2015-04-12T09:16:50Z</time>
      </trkpt>
      <trkpt lat="43.21015" lon="5.48539">
        <ele>200.6</ele>
        <time>2015-04-12T09:17:18Z</time>
      </trkpt>
      <trkpt lat="43.21027" lon="5.4852">
        <ele>203.1</ele>
        <time>2015-04-12T09:17:45Z</time>
      </trkpt>
      <trkpt lat="43.21033" lon="5.48498">
        <ele>206.5</ele>
        <time>2015-04-12T09:18:14Z</time>
      </trkpt>
      <trkpt lat="43.21039" lon="5.48475">
        <ele>208.9</ele>
        <time>2015-04-12T09:18:41Z</time>
      </trkpt>
      <trkpt lat="43.2104" lon="5.48451">
        <ele>211.1</ele>
        <time>2015-04-12T09:19:03Z</time>
      </trkpt>
      <trkpt lat="43.21039" lon="5.48428">
        <ele>212.9</ele>
        <time>2015-04-12T09:19:22Z</time>
      </trkpt>
      <trkpt lat="43.2103" lon="5.48406">
        <ele>213</ele>
        <time>2015-04-12T09:19:40Z</time>
      </trkpt>
      <trkpt lat="43.21022" lon="5.48385">
        <ele>212.3</ele>
        <time>2015-04-12T09:19:57Z</time>
      </trkpt>
      <trkpt lat="43.21021" lon="5.48361">
        <ele>210.7</ele>
        <time>2015-04-12T09:20:14Z</time>
      </trkpt>
      <trkpt lat="43.21021" lon="5.48338">
        <ele>209.1</ele>
        <time>2015-04-12T09:20:31Z</time>
      </trkpt>
      <trkpt lat="43.21022" lon="5.48314">
        <ele>206.9</ele>
        <time>2015-04-12T09:20:50Z</time>
      </trkpt>
      <trkpt lat="43.21021" lon="5.4829">
        <ele>204.2</ele>
        <time>2015-04-12T09:21:08Z</time>
      </trkpt>
      <trkpt lat="43.21021" lon="5.48266">
        <ele>202.2</ele>
        <time>2015-04-12T09:21:25Z</time>
      </trkpt>
      <trkpt lat="43.21019" lon="5.48241">
        <ele>200.7</ele>
        <time>2015-04-12T09:21:43Z</time>
      </trkpt>
      <trkpt lat="43.21015" lon="5.48218">
        <ele>198.3</ele>
        <time>2015-04-12T09:22:03Z</time>
      </trkpt>
      <trkpt lat="43.21015" lon="5.48195">
        <ele>196.8</ele>
        <time>2015-04-12T09:22:21Z</time>
      </trkpt>
      <trkpt lat="43.21011" lon="5.48171">
        <ele>194.7</ele>
        <time>2015-04-12T09:22:41Z</time>
      </trkpt>
      <trkpt lat="43.21002" lon="5.48151">
        <ele>191.4</ele>
        <time>2015-04-12T09:23:00Z</time>
      </trkpt>
      <trkpt lat="43.20995" lon="5.48131">
        <ele>189.5</ele>
        <time>2015-04-12T09:23:16Z</time>
      </trkpt>
      <trkpt lat="43.20986" lon="5.4811">
        <ele>187.2</ele>
        <time>2015-04-12T09:23:34Z</time>
      </trkpt>
      <trkpt lat="43.20976" lon="5.48089">
        <ele>184.1</ele>
        <time>2015-04-12T09:23:54Z</time>
      </trkpt>
      <trkpt lat="43.20975" lon="5.48112">
        <ele>180.7</ele>
        <time>2015-04-12T09:24:23Z</time>
      </trkpt>
      <trkpt lat="43.20972" lon="5.48136">
        <ele>181.5</ele>
        <time>2015-04-12T09:24:41Z</time>
      </trkpt>
      <trkpt lat="43.20972" lon="5.4816">
        <ele>183.9</ele>
        <time>2015-04-12T09:25:07Z</time>
      </trkpt>
      <trkpt lat="43.20961" lon="5.4818">
        <ele>182.8</ele>
        <time>2015-04-12T09:25:33Z</time>
      </trkpt>
      <trkpt lat="43.20952" lon="5.48199">
        <ele>182.8</ele>
        <time>2015-04-12T09:25:51Z</time>
      </trkpt>
      <trkpt lat="43.20942" lon="5.48219">
        <ele>181.6</ele>
        <time>2015-04-12T09:26:09Z</time>
      </trkpt>
      <trkpt lat="43.20932" lon="5.48239">
        <ele>180.7</ele>
        <time>2015-04-12T09:26:25Z</time>
      </trkpt>
      <trkpt lat="43.20914" lon="5.4824">
        <ele>181.1</ele>
        <time>2015-04-12T09:26:44Z</time>
      </trkpt>
      <trkpt lat="43.20901" lon="5.48224">
        <ele>181.8</ele>
        <time>2015-04-12T09:27:03Z</time>
      </trkpt>
      <trkpt lat="43.20892" lon="5.48203">
        <ele>182.1</ele>
        <time>2015-04-12T09:27:19Z</time>
      </trkpt>
      <trkpt lat="43.2088" lon="5.48185">
        <ele>179.9</ele>
        <time>2015-04-12T09:27:35Z</time>
      </trkpt>
      <trkpt lat="43.20869" lon="5.48166">
        <ele>178.2</ele>
        <time>2015-04-12T09:27:56Z</time>
      </trkpt>
      <trkpt lat="43.20859" lon="5.48147">
        <ele>178.8</ele>
        <time>2015-04-12T09:28:11Z</time>
      </trkpt>
      <trkpt lat="43.20844" lon="5.48135">
        <ele>177.2</ele>
        <time>2015-04-12T09:28:25Z</time>
      </trkpt>
      <trkpt lat="43.2083" lon="5.48123">
        <ele>176</ele>
        <time>2015-04-12T09:28:38Z</time>
      </trkpt>
      <trkpt lat="43.20816" lon="5.48108">
        <ele>176.3</ele>
        <time>2015-04-12T09:28:54Z</time>
      </trkpt>
      <trkpt lat="43.20812" lon="5.48085">
        <ele>175.5</ele>
        <time>2015-04-12T09:29:11Z</time>
      </trkpt>
      <trkpt lat="43.20816" lon="5.48062">
        <ele>171.5</ele>
        <time>2015-04-12T09:29:35Z</time>
      </trkpt>
      <trkpt lat="43.20807" lon="5.48041">
        <ele>168.3</ele>
        <time>2015-04-12T09:29:54Z</time>
      </trkpt>
      <trkpt lat="43.20792" lon="5.48028">
        <ele>165.2</ele>
        <time>2015-04-12T09:30:15Z</time>
      </trkpt>
      <trkpt lat="43.20782" lon="5.48048">
        <ele>164.8</ele>
        <time>2015-04-12T09:30:46Z</time>
      </trkpt>
      <trkpt lat="43.20766" lon="5.48038">
        <ele>178.9</ele>
        <time>2015-04-12T09:32:28Z</time>
      </trkpt>
      <trkpt lat="43.20759" lon="5.48016">
        <ele>182.1</ele>
        <time>2015-04-12T09:32:51Z</time>
      </trkpt>
      <trkpt lat="43.20756" lon="5.47992">
        <ele>184.9</ele>
        <time>2015-04-12T09:33:14Z</time>
      </trkpt>
      <trkpt lat="43.20756" lon="5.47967">
        <ele>190.4</ele>
        <time>2015-04-12T09:33:47Z</time>
      </trkpt>
      <trkpt lat="43.20753" lon="5.47943">
        <ele>192.2</ele>
        <time>2015-04-12T09:34:10Z</time>
      </trkpt>
      <trkpt lat="43.2075" lon="5.4792">
        <ele>196.6</ele>
        <time>2015-04-12T09:34:39Z</time>
      </trkpt>
      <trkpt lat="43.20736" lon="5.47904">
        <ele>207.3</ele>
        <time>2015-04-12T09:35:44Z</time>
      </trkpt>
      <trkpt lat="43.20725" lon="5.47885">
        <ele>216.2</ele>
        <time>2015-04-12T09:36:35Z</time>
      </trkpt>
      <trkpt lat="43.20727" lon="5.47861">
        <ele>220.8</ele>
        <time>2015-04-12T09:37:10Z</time>
      </trkpt>
      <trkpt lat="43.20726" lon="5.47836">
        <ele>224.9</ele>
        <time>2015-04-12T09:39:51Z</time>
      </trkpt>
      <trkpt lat="43.20736" lon="5.47816">
        <ele>228.7</ele>
        <time>2015-04-12T09:44:54Z</time>
      </trkpt>
      <trkpt lat="43.20744" lon="5.47793">
        <ele>233.2</ele>
        <time>2015-04-12T09:46:05Z</time>
      </trkpt>
      <trkpt lat="43.20736" lon="5.47816">
        <ele>230</ele>
        <time>2015-04-12T09:48:25Z</time>
      </trkpt>
      <trkpt lat="43.20726" lon="5.47835">
        <ele>228.6</ele>
        <time>2015-04-12T09:49:12Z</time>
      </trkpt>
      <trkpt lat="43.20717" lon="5.47855">
        <ele>229.2</ele>
        <time>2015-04-12T09:49:49Z</time>
      </trkpt>
      <trkpt lat="43.20702" lon="5.47869">
        <ele>231.4</ele>
        <time>2015-04-12T09:50:17Z</time>
      </trkpt>
      <trkpt lat="43.20689" lon="5.47886">
        <ele>232</ele>
        <time>2015-04-12T09:51:28Z</time>
      </trkpt>
      <trkpt lat="43.207" lon="5.47867">
        <ele>238.4</ele>
        <time>2015-04-12T10:41:28Z</time>
      </trkpt>
      <trkpt lat="43.20715" lon="5.47857">
        <ele>236.2</ele>
        <time>2015-04-12T10:41:53Z</time>
      </trkpt>
      <trkpt lat="43.20724" lon="5.47836">
        <ele>235.5</ele>
        <time>2015-04-12T10:42:24Z</time>
      </trkpt>
      <trkpt lat="43.20735" lon="5.47816">
        <ele>237.1</ele>
        <time>2015-04-12T10:42:51Z</time>
      </trkpt>
      <trkpt lat="43.20742" lon="5.47794">
        <ele>240.7</ele>
        <time>2015-04-12T10:43:25Z</time>
      </trkpt>
      <trkpt lat="43.20751" lon="5.47773">
        <ele>244.9</ele>
        <time>2015-04-12T10:44:00Z</time>
      </trkpt>
      <trkpt lat="43.20759" lon="5.47751">
        <ele>250.9</ele>
        <time>2015-04-12T10:44:54Z</time>
      </trkpt>
      <trkpt lat="43.20764" lon="5.47727">
        <ele>263</ele>
        <time>2015-04-12T10:46:31Z</time>
      </trkpt>
      <trkpt lat="43.20753" lon="5.47708">
        <ele>273.6</ele>
        <time>2015-04-12T10:48:25Z</time>
      </trkpt>
      <trkpt lat="43.20742" lon="5.47689">
        <ele>279.5</ele>
        <time>2015-04-12T10:49:28Z</time>
      </trkpt>
      <trkpt lat="43.20745" lon="5.47665">
        <ele>286.4</ele>
        <time>2015-04-12T10:50:19Z</time>
      </trkpt>
      <trkpt lat="43.20756" lon="5.47646">
        <ele>290</ele>
        <time>2015-04-12T10:50:47Z</time>
      </trkpt>
      <trkpt lat="43.2077" lon="5.47631">
        <ele>294.6</ele>
        <time>2015-04-12T10:51:28Z</time>
      </trkpt>
      <trkpt lat="43.20773" lon="5.47608">
        <ele>297.6</ele>
        <time>2015-04-12T10:51:57Z</time>
      </trkpt>
      <trkpt lat="43.20779" lon="5.47585">
        <ele>300.3</ele>
        <time>2015-04-12T10:52:23Z</time>
      </trkpt>
      <trkpt lat="43.2078" lon="5.47561">
        <ele>301.1</ele>
        <time>2015-04-12T10:53:22Z</time>
      </trkpt>
      <trkpt lat="43.20795" lon="5.47547">
        <ele>303.7</ele>
        <time>2015-04-12T10:54:14Z</time>
      </trkpt>
      <trkpt lat="43.20809" lon="5.47532">
        <ele>304.6</ele>
        <time>2015-04-12T10:54:34Z</time>
      </trkpt>
      <trkpt lat="43.20821" lon="5.47514">
        <ele>305.9</ele>
        <time>2015-04-12T10:55:00Z</time>
      </trkpt>
      <trkpt lat="43.2083" lon="5.47493">
        <ele>308.4</ele>
        <time>2015-04-12T10:55:23Z</time>
      </trkpt>
      <trkpt lat="43.20835" lon="5.47471">
        <ele>310.4</ele>
        <time>2015-04-12T10:55:45Z</time>
      </trkpt>
      <trkpt lat="43.20844" lon="5.47451">
        <ele>310.1</ele>
        <time>2015-04-12T10:56:04Z</time>
      </trkpt>
      <trkpt lat="43.20844" lon="5.47427">
        <ele>310.4</ele>
        <time>2015-04-12T10:56:28Z</time>
      </trkpt>
      <trkpt lat="43.20838" lon="5.47404">
        <ele>310.9</ele>
        <time>2015-04-12T10:56:50Z</time>
      </trkpt>
      <trkpt lat="43.20851" lon="5.47387">
        <ele>309.8</ele>
        <time>2015-04-12T10:58:22Z</time>
      </trkpt>
      <trkpt lat="43.20865" lon="5.47373">
        <ele>309.8</ele>
        <time>2015-04-12T10:58:43Z</time>
      </trkpt>
      <trkpt lat="43.20879" lon="5.47359">
        <ele>309.6</ele>
        <time>2015-04-12T10:59:00Z</time>
      </trkpt>
      <trkpt lat="43.20891" lon="5.47342">
        <ele>310.4</ele>
        <time>2015-04-12T10:59:18Z</time>
      </trkpt>
      <trkpt lat="43.20903" lon="5.47323">
        <ele>311.8</ele>
        <time>2015-04-12T10:59:36Z</time>
      </trkpt>
      <trkpt lat="43.20915" lon="5.47305">
        <ele>313</ele>
        <time>2015-04-12T10:59:59Z</time>
      </trkpt>
      <trkpt lat="43.20929" lon="5.47291">
        <ele>311.7</ele>
        <time>2015-04-12T11:01:11Z</time>
      </trkpt>
      <trkpt lat="43.20947" lon="5.47287">
        <ele>310</ele>
        <time>2015-04-12T11:04:02Z</time>
      </trkpt>
      <trkpt lat="43.20963" lon="5.47277">
        <ele>305.3</ele>
        <time>2015-04-12T11:07:43Z</time>
      </trkpt>
      <trkpt lat="43.20978" lon="5.47265">
        <ele>298.1</ele>
        <time>2015-04-12T11:13:08Z</time>
      </trkpt>
      <trkpt lat="43.20991" lon="5.47248">
        <ele>292.4</ele>
        <time>2015-04-12T11:14:06Z</time>
      </trkpt>
      <trkpt lat="43.21003" lon="5.47232">
        <ele>290.5</ele>
        <time>2015-04-12T11:14:27Z</time>
      </trkpt>
      <trkpt lat="43.21013" lon="5.47212">
        <ele>291.8</ele>
        <time>2015-04-12T11:14:56Z</time>
      </trkpt>
      <trkpt lat="43.21025" lon="5.47195">
        <ele>294.4</ele>
        <time>2015-04-12T11:15:22Z</time>
      </trkpt>
      <trkpt lat="43.21042" lon="5.47184">
        <ele>289.5</ele>
        <time>2015-04-12T11:16:08Z</time>
      </trkpt>
      <trkpt lat="43.21059" lon="5.47188">
        <ele>281.3</ele>
        <time>2015-04-12T11:17:04Z</time>
      </trkpt>
      <trkpt lat="43.21071" lon="5.47173">
        <ele>277.9</ele>
        <time>2015-04-12T11:17:28Z</time>
      </trkpt>
      <trkpt lat="43.21087" lon="5.47163">
        <ele>275.8</ele>
        <time>2015-04-12T11:17:45Z</time>
      </trkpt>
      <trkpt lat="43.21102" lon="5.4715">
        <ele>273</ele>
        <time>2015-04-12T11:19:13Z</time>
      </trkpt>
      <trkpt lat="43.21116" lon="5.47165">
        <ele>275.4</ele>
        <time>2015-04-12T11:19:32Z</time>
      </trkpt>
      <trkpt lat="43.21128" lon="5.47183">
        <ele>276.4</ele>
        <time>2015-04-12T11:20:05Z</time>
      </trkpt>
      <trkpt lat="43.21144" lon="5.4719">
        <ele>279.6</ele>
        <time>2015-04-12T11:20:36Z</time>
      </trkpt>
      <trkpt lat="43.21149" lon="5.47214">
        <ele>284.7</ele>
        <time>2015-04-12T11:21:12Z</time>
      </trkpt>
      <trkpt lat="43.21166" lon="5.47207">
        <ele>292.5</ele>
        <time>2015-04-12T11:22:25Z</time>
      </trkpt>
      <trkpt lat="43.21164" lon="5.47183">
        <ele>297.5</ele>
        <time>2015-04-12T11:23:02Z</time>
      </trkpt>
      <trkpt lat="43.21169" lon="5.47159">
        <ele>303.3</ele>
        <time>2015-04-12T11:23:52Z</time>
      </trkpt>
      <trkpt lat="43.21186" lon="5.47154">
        <ele>312.2</ele>
        <time>2015-04-12T11:24:54Z</time>
      </trkpt>
      <trkpt lat="43.21198" lon="5.47136">
        <ele>315.5</ele>
        <time>2015-04-12T11:26:02Z</time>
      </trkpt>
      <trkpt lat="43.21213" lon="5.4715">
        <ele>322.4</ele>
        <time>2015-04-12T11:38:11Z</time>
      </trkpt>
      <trkpt lat="43.2123" lon="5.47151">
        <ele>330.8</ele>
        <time>2015-04-12T11:39:16Z</time>
      </trkpt>
      <trkpt lat="43.21247" lon="5.47145">
        <ele>338.2</ele>
        <time>2015-04-12T11:40:16Z</time>
      </trkpt>
      <trkpt lat="43.21264" lon="5.47138">
        <ele>344.9</ele>
        <time>2015-04-12T11:41:18Z</time>
      </trkpt>
      <trkpt lat="43.21282" lon="5.47139">
        <ele>351.5</ele>
        <time>2015-04-12T11:42:10Z</time>
      </trkpt>
      <trkpt lat="43.21299" lon="5.47138">
        <ele>359</ele>
        <time>2015-04-12T11:43:12Z</time>
      </trkpt>
      <trkpt lat="43.21317" lon="5.47136">
        <ele>365</ele>
        <time>2015-04-12T11:44:09Z</time>
      </trkpt>
      <trkpt lat="43.21334" lon="5.47138">
        <ele>369</ele>
        <time>2015-04-12T11:45:04Z</time>
      </trkpt>
      <trkpt lat="43.21351" lon="5.47146">
        <ele>373.5</ele>
        <time>2015-04-12T11:46:02Z</time>
      </trkpt>
      <trkpt lat="43.21364" lon="5.47162">
        <ele>380.2</ele>
        <time>2015-04-12T11:46:52Z</time>
      </trkpt>
      <trkpt lat="43.21381" lon="5.47154">
        <ele>393</ele>
        <time>2015-04-12T11:48:30Z</time>
      </trkpt>
      <trkpt lat="43.21392" lon="5.47172">
        <ele>399.7</ele>
        <time>2015-04-12T11:50:14Z</time>
      </trkpt>
      <trkpt lat="43.21401" lon="5.47193">
        <ele>401</ele>
        <time>2015-04-12T11:50:52Z</time>
      </trkpt>
      <trkpt lat="43.21408" lon="5.47216">
        <ele>404.8</ele>
        <time>2015-04-12T11:51:21Z</time>
      </trkpt>
      <trkpt lat="43.21413" lon="5.47239">
        <ele>412.1</ele>
        <time>2015-04-12T11:52:18Z</time>
      </trkpt>
      <trkpt lat="43.2141" lon="5.47263">
        <ele>415.7</ele>
        <time>2015-04-12T11:53:16Z</time>
      </trkpt>
      <trkpt lat="43.21428" lon="5.47265">
        <ele>435.5</ele>
        <time>2015-04-12T11:57:24Z</time>
      </trkpt>
      <trkpt lat="43.21441" lon="5.47248">
        <ele>443.2</ele>
        <time>2015-04-12T11:58:20Z</time>
      </trkpt>
      <trkpt lat="43.21447" lon="5.47225">
        <ele>449.3</ele>
        <time>2015-04-12T11:59:20Z</time>
      </trkpt>
      <trkpt lat="43.2145" lon="5.47201">
        <ele>453.7</ele>
        <time>2015-04-12T12:00:06Z</time>
      </trkpt>
      <trkpt lat="43.21468" lon="5.47199">
        <ele>463.4</ele>
        <time>2015-04-12T12:01:36Z</time>
      </trkpt>
      <trkpt lat="43.21469" lon="5.47175">
        <ele>474.2</ele>
        <time>2015-04-12T12:04:00Z</time>
      </trkpt>
      <trkpt lat="43.21467" lon="5.47151">
        <ele>478</ele>
        <time>2015-04-12T12:04:38Z</time>
      </trkpt>
      <trkpt lat="43.21473" lon="5.47128">
        <ele>481.9</ele>
        <time>2015-04-12T12:05:07Z</time>
      </trkpt>
      <trkpt lat="43.21473" lon="5.47104">
        <ele>484.1</ele>
        <time>2015-04-12T12:06:09Z</time>
      </trkpt>
      <trkpt lat="43.21488" lon="5.4709">
        <ele>485.4</ele>
        <time>2015-04-12T12:06:39Z</time>
      </trkpt>
      <trkpt lat="43.21492" lon="5.47068">
        <ele>487.9</ele>
        <time>2015-04-12T12:07:02Z</time>
      </trkpt>
      <trkpt lat="43.21504" lon="5.47051">
        <ele>488.1</ele>
        <time>2015-04-12T12:07:19Z</time>
      </trkpt>
      <trkpt lat="43.21514" lon="5.47031">
        <ele>488.3</ele>
        <time>2015-04-12T12:08:00Z</time>
      </trkpt>
      <trkpt lat="43.21522" lon="5.4701">
        <ele>490.8</ele>
        <time>2015-04-12T12:08:28Z</time>
      </trkpt>
      <trkpt lat="43.21529" lon="5.46988">
        <ele>496.8</ele>
        <time>2015-04-12T12:10:07Z</time>
      </trkpt>
      <trkpt lat="43.21539" lon="5.46967">
        <ele>500.1</ele>
        <time>2015-04-12T12:47:29Z</time>
      </trkpt>
      <trkpt lat="43.21553" lon="5.46953">
        <ele>501.1</ele>
        <time>2015-04-12T12:47:53Z</time>
      </trkpt>
      <trkpt lat="43.21569" lon="5.46943">
        <ele>501.5</ele>
        <time>2015-04-12T12:48:12Z</time>
      </trkpt>
      <trkpt lat="43.21585" lon="5.46932">
        <ele>500.2</ele>
        <time>2015-04-12T12:48:30Z</time>
      </trkpt>
      <trkpt lat="43.21599" lon="5.46918">
        <ele>500.9</ele>
        <time>2015-04-12T12:48:48Z</time>
      </trkpt>
      <trkpt lat="43.21613" lon="5.46904">
        <ele>501.4</ele>
        <time>2015-04-12T12:49:09Z</time>
      </trkpt>
      <trkpt lat="43.21628" lon="5.46893">
        <ele>501.5</ele>
        <time>2015-04-12T12:49:26Z</time>
      </trkpt>
      <trkpt lat="43.21642" lon="5.46878">
        <ele>502.6</ele>
        <time>2015-04-12T12:49:47Z</time>
      </trkpt>
      <trkpt lat="43.21655" lon="5.46861">
        <ele>506.7</ele>
        <time>2015-04-12T12:50:08Z</time>
      </trkpt>
      <trkpt lat="43.21668" lon="5.46846">
        <ele>508.1</ele>
        <time>2015-04-12T12:50:28Z</time>
      </trkpt>
      <trkpt lat="43.21682" lon="5.46831">
        <ele>509.4</ele>
        <time>2015-04-12T12:52:23Z</time>
      </trkpt>
      <trkpt lat="43.217" lon="5.46828">
        <ele>508.6</ele>
        <time>2015-04-12T12:53:12Z</time>
      </trkpt>
      <trkpt lat="43.21718" lon="5.46823">
        <ele>509.1</ele>
        <time>2015-04-12T12:54:44Z</time>
      </trkpt>
      <trkpt lat="43.21735" lon="5.46817">
        <ele>508.1</ele>
        <time>2015-04-12T12:55:06Z</time>
      </trkpt>
      <trkpt lat="43.21752" lon="5.46812">
        <ele>508.5</ele>
        <time>2015-04-12T12:55:33Z</time>
      </trkpt>
      <trkpt lat="43.21768" lon="5.46805">
        <ele>507.2</ele>
        <time>2015-04-12T12:55:51Z</time>
      </trkpt>
      <trkpt lat="43.21785" lon="5.46798">
        <ele>505.5</ele>
        <time>2015-04-12T12:56:12Z</time>
      </trkpt>
      <trkpt lat="43.21802" lon="5.46793">
        <ele>505.7</ele>
        <time>2015-04-12T12:56:32Z</time>
      </trkpt>
      <trkpt lat="43.21819" lon="5.46789">
        <ele>505.5</ele>
        <time>2015-04-12T12:56:58Z</time>
      </trkpt>
      <trkpt lat="43.21837" lon="5.46787">
        <ele>504.8</ele>
        <time>2015-04-12T12:57:15Z</time>
      </trkpt>
      <trkpt lat="43.21855" lon="5.46788">
        <ele>503.8</ele>
        <time>2015-04-12T12:57:32Z</time>
      </trkpt>
      <trkpt lat="43.21872" lon="5.46786">
        <ele>504.6</ele>
        <time>2015-04-12T12:57:50Z</time>
      </trkpt>
      <trkpt lat="43.21889" lon="5.46782">
        <ele>505</ele>
        <time>2015-04-12T12:58:08Z</time>
      </trkpt>
      <trkpt lat="43.21907" lon="5.46783">
        <ele>506.4</ele>
        <time>2015-04-12T12:58:28Z</time>
      </trkpt>
      <trkpt lat="43.21924" lon="5.46785">
        <ele>506.5</ele>
        <time>2015-04-12T12:58:46Z</time>
      </trkpt>
      <trkpt lat="43.21942" lon="5.46788">
        <ele>507.5</ele>
        <time>2015-04-12T12:59:04Z</time>
      </trkpt>
      <trkpt lat="43.21959" lon="5.46796">
        <ele>508.5</ele>
        <time>2015-04-12T12:59:24Z</time>
      </trkpt>
      <trkpt lat="43.21976" lon="5.46796">
        <ele>508.4</ele>
        <time>2015-04-12T12:59:41Z</time>
      </trkpt>
      <trkpt lat="43.21993" lon="5.46799">
        <ele>509.2</ele>
        <time>2015-04-12T12:59:58Z</time>
      </trkpt>
      <trkpt lat="43.22011" lon="5.46799">
        <ele>509.4</ele>
        <time>2015-04-12T13:00:15Z</time>
      </trkpt>
      <trkpt lat="43.22028" lon="5.46803">
        <ele>509.2</ele>
        <time>2015-04-12T13:00:32Z</time>
      </trkpt>
      <trkpt lat="43.22044" lon="5.46813">
        <ele>508.7</ele>
        <time>2015-04-12T13:00:49Z</time>
      </trkpt>
      <trkpt lat="43.22058" lon="5.46826">
        <ele>506.9</ele>
        <time>2015-04-12T13:01:06Z</time>
      </trkpt>
      <trkpt lat="43.2207" lon="5.46845">
        <ele>504.8</ele>
        <time>2015-04-12T13:01:23Z</time>
      </trkpt>
      <trkpt lat="43.22081" lon="5.46863">
        <ele>503</ele>
        <time>2015-04-12T13:01:39Z</time>
      </trkpt>
      <trkpt lat="43.22089" lon="5.46884">
        <ele>501.2</ele>
        <time>2015-04-12T13:01:55Z</time>
      </trkpt>
      <trkpt lat="43.22101" lon="5.46902">
        <ele>499.5</ele>
        <time>2015-04-12T13:02:14Z</time>
      </trkpt>
      <trkpt lat="43.22105" lon="5.46926">
        <ele>495.5</ele>
        <time>2015-04-12T13:02:36Z</time>
      </trkpt>
      <trkpt lat="43.2211" lon="5.46948">
        <ele>493</ele>
        <time>2015-04-12T13:02:52Z</time>
      </trkpt>
      <trkpt lat="43.22118" lon="5.4697">
        <ele>490.5</ele>
        <time>2015-04-12T13:03:09Z</time>
      </trkpt>
      <trkpt lat="43.22127" lon="5.46991">
        <ele>487.1</ele>
        <time>2015-04-12T13:03:26Z</time>
      </trkpt>
      <trkpt lat="43.22139" lon="5.47008">
        <ele>484.2</ele>
        <time>2015-04-12T13:03:44Z</time>
      </trkpt>
      <trkpt lat="43.22151" lon="5.47026">
        <ele>482.2</ele>
        <time>2015-04-12T13:04:01Z</time>
      </trkpt>
      <trkpt lat="43.22165" lon="5.47041">
        <ele>479.9</ele>
        <time>2015-04-12T13:04:18Z</time>
      </trkpt>
      <trkpt lat="43.2218" lon="5.47054">
        <ele>478.2</ele>
        <time>2015-04-12T13:04:39Z</time>
      </trkpt>
      <trkpt lat="43.22195" lon="5.47067">
        <ele>476.9</ele>
        <time>2015-04-12T13:05:15Z</time>
      </trkpt>
      <trkpt lat="43.22212" lon="5.47076">
        <ele>475.9</ele>
        <time>2015-04-12T13:05:41Z</time>
      </trkpt>
      <trkpt lat="43.22229" lon="5.4708">
        <ele>474.6</ele>
        <time>2015-04-12T13:05:59Z</time>
      </trkpt>
      <trkpt lat="43.22246" lon="5.47087">
        <ele>473.3</ele>
        <time>2015-04-12T13:06:18Z</time>
      </trkpt>
      <trkpt lat="43.22263" lon="5.47096">
        <ele>471.6</ele>
        <time>2015-04-12T13:06:37Z</time>
      </trkpt>
      <trkpt lat="43.22279" lon="5.47105">
        <ele>472</ele>
        <time>2015-04-12T13:06:54Z</time>
      </trkpt>
      <trkpt lat="43.22294" lon="5.47116">
        <ele>472.1</ele>
        <time>2015-04-12T13:07:11Z</time>
      </trkpt>
      <trkpt lat="43.22307" lon="5.47133">
        <ele>471.6</ele>
        <time>2015-04-12T13:07:28Z</time>
      </trkpt>
      <trkpt lat="43.2232" lon="5.4715">
        <ele>470.8</ele>
        <time>2015-04-12T13:07:46Z</time>
      </trkpt>
      <trkpt lat="43.22331" lon="5.47168">
        <ele>471.3</ele>
        <time>2015-04-12T13:08:05Z</time>
      </trkpt>
      <trkpt lat="43.22349" lon="5.47171">
        <ele>472</ele>
        <time>2015-04-12T13:08:51Z</time>
      </trkpt>
      <trkpt lat="43.2234" lon="5.47193">
        <ele>470.6</ele>
        <time>2015-04-12T13:12:40Z</time>
      </trkpt>
      <trkpt lat="43.22348" lon="5.47214">
        <ele>470.7</ele>
        <time>2015-04-12T13:12:59Z</time>
      </trkpt>
      <trkpt lat="43.22354" lon="5.47237">
        <ele>470.8</ele>
        <time>2015-04-12T13:13:17Z</time>
      </trkpt>
      <trkpt lat="43.22358" lon="5.47261">
        <ele>470.3</ele>
        <time>2015-04-12T13:13:34Z</time>
      </trkpt>
      <trkpt lat="43.22365" lon="5.47283">
        <ele>470.1</ele>
        <time>2015-04-12T13:13:50Z</time>
      </trkpt>
      <trkpt lat="43.22371" lon="5.47306">
        <ele>471.2</ele>
        <time>2015-04-12T13:14:06Z</time>
      </trkpt>
      <trkpt lat="43.22379" lon="5.47327">
        <ele>471.1</ele>
        <time>2015-04-12T13:14:22Z</time>
      </trkpt>
      <trkpt lat="43.22388" lon="5.47349">
        <ele>470</ele>
        <time>2015-04-12T13:14:39Z</time>
      </trkpt>
      <trkpt lat="43.22406" lon="5.47349">
        <ele>470.6</ele>
        <time>2015-04-12T13:15:36Z</time>
      </trkpt>
      <trkpt lat="43.22396" lon="5.47368">
        <ele>469.5</ele>
        <time>2015-04-12T13:16:09Z</time>
      </trkpt>
      <trkpt lat="43.22394" lon="5.47392">
        <ele>467.1</ele>
        <time>2015-04-12T13:16:25Z</time>
      </trkpt>
      <trkpt lat="43.22392" lon="5.47416">
        <ele>464.4</ele>
        <time>2015-04-12T13:16:41Z</time>
      </trkpt>
      <trkpt lat="43.22389" lon="5.4744">
        <ele>462</ele>
        <time>2015-04-12T13:16:57Z</time>
      </trkpt>
      <trkpt lat="43.22394" lon="5.47462">
        <ele>460.3</ele>
        <time>2015-04-12T13:17:15Z</time>
      </trkpt>
      <trkpt lat="43.2241" lon="5.47473">
        <ele>458</ele>
        <time>2015-04-12T13:17:32Z</time>
      </trkpt>
      <trkpt lat="43.22415" lon="5.47495">
        <ele>456.5</ele>
        <time>2015-04-12T13:17:47Z</time>
      </trkpt>
      <trkpt lat="43.22417" lon="5.47519">
        <ele>454.5</ele>
        <time>2015-04-12T13:18:01Z</time>
      </trkpt>
      <trkpt lat="43.22422" lon="5.47541">
        <ele>455.2</ele>
        <time>2015-04-12T13:18:16Z</time>
      </trkpt>
      <trkpt lat="43.22425" lon="5.47565">
        <ele>457.8</ele>
        <time>2015-04-12T13:18:34Z</time>
      </trkpt>
      <trkpt lat="43.2244" lon="5.47577">
        <ele>462.5</ele>
        <time>2015-04-12T13:19:00Z</time>
      </trkpt>
      <trkpt lat="43.22448" lon="5.47598">
        <ele>465</ele>
        <time>2015-04-12T13:19:24Z</time>
      </trkpt>
      <trkpt lat="43.22446" lon="5.47622">
        <ele>466.4</ele>
        <time>2015-04-12T13:19:42Z</time>
      </trkpt>
      <trkpt lat="43.22451" lon="5.47645">
        <ele>467.1</ele>
        <time>2015-04-12T13:20:00Z</time>
      </trkpt>
      <trkpt lat="43.22459" lon="5.47667">
        <ele>468</ele>
        <time>2015-04-12T13:20:18Z</time>
      </trkpt>
      <trkpt lat="43.22464" lon="5.4769">
        <ele>468.9</ele>
        <time>2015-04-12T13:20:35Z</time>
      </trkpt>
      <trkpt lat="43.22471" lon="5.47711">
        <ele>468.8</ele>
        <time>2015-04-12T13:20:50Z</time>
      </trkpt>
      <trkpt lat="43.22478" lon="5.47734">
        <ele>468.5</ele>
        <time>2015-04-12T13:21:05Z</time>
      </trkpt>
      <trkpt lat="43.22484" lon="5.47757">
        <ele>466.9</ele>
        <time>2015-04-12T13:21:19Z</time>
      </trkpt>
      <trkpt lat="43.22489" lon="5.4778">
        <ele>464.9</ele>
        <time>2015-04-12T13:21:34Z</time>
      </trkpt>
      <trkpt lat="43.22496" lon="5.47802">
        <ele>463.5</ele>
        <time>2015-04-12T13:21:51Z</time>
      </trkpt>
      <trkpt lat="43.22504" lon="5.47823">
        <ele>460.6</ele>
        <time>2015-04-12T13:22:12Z</time>
      </trkpt>
      <trkpt lat="43.22511" lon="5.47845">
        <ele>457.9</ele>
        <time>2015-04-12T13:22:32Z</time>
      </trkpt>
      <trkpt lat="43.22512" lon="5.47869">
        <ele>454.3</ele>
        <time>2015-04-12T13:22:56Z</time>
      </trkpt>
      <trkpt lat="43.22515" lon="5.47892">
        <ele>450.7</ele>
        <time>2015-04-12T13:23:17Z</time>
      </trkpt>
      <trkpt lat="43.2251" lon="5.47916">
        <ele>447.5</ele>
        <time>2015-04-12T13:23:38Z</time>
      </trkpt>
      <trkpt lat="43.22508" lon="5.4794">
        <ele>444.7</ele>
        <time>2015-04-12T13:23:58Z</time>
      </trkpt>
      <trkpt lat="43.22515" lon="5.47962">
        <ele>442.9</ele>
        <time>2015-04-12T13:24:17Z</time>
      </trkpt>
      <trkpt lat="43.22519" lon="5.47986">
        <ele>441.8</ele>
        <time>2015-04-12T13:25:01Z</time>
      </trkpt>
      <trkpt lat="43.22518" lon="5.48009">
        <ele>443.3</ele>
        <time>2015-04-12T13:25:37Z</time>
      </trkpt>
      <trkpt lat="43.2253" lon="5.48027">
        <ele>443.3</ele>
        <time>2015-04-12T13:26:15Z</time>
      </trkpt>
      <trkpt lat="43.2254" lon="5.48047">
        <ele>443</ele>
        <time>2015-04-12T13:26:28Z</time>
      </trkpt>
      <trkpt lat="43.22549" lon="5.48067">
        <ele>441</ele>
        <time>2015-04-12T13:26:46Z</time>
      </trkpt>
      <trkpt lat="43.2256" lon="5.48085">
        <ele>440</ele>
        <time>2015-04-12T13:27:03Z</time>
      </trkpt>
      <trkpt lat="43.22572" lon="5.48103">
        <ele>437.9</ele>
        <time>2015-04-12T13:27:19Z</time>
      </trkpt>
      <trkpt lat="43.22584" lon="5.48121">
        <ele>436.7</ele>
        <time>2015-04-12T13:27:34Z</time>
      </trkpt>
      <trkpt lat="43.22594" lon="5.4814">
        <ele>435.5</ele>
        <time>2015-04-12T13:27:51Z</time>
      </trkpt>
      <trkpt lat="43.22602" lon="5.48162">
        <ele>433.9</ele>
        <time>2015-04-12T13:28:06Z</time>
      </trkpt>
      <trkpt lat="43.22604" lon="5.48186">
        <ele>432.9</ele>
        <time>2015-04-12T13:28:21Z</time>
      </trkpt>
      <trkpt lat="43.22602" lon="5.4821">
        <ele>432.8</ele>
        <time>2015-04-12T13:28:38Z</time>
      </trkpt>
      <trkpt lat="43.22599" lon="5.48233">
        <ele>435.2</ele>
        <time>2015-04-12T13:28:56Z</time>
      </trkpt>
      <trkpt lat="43.22596" lon="5.48257">
        <ele>436.8</ele>
        <time>2015-04-12T13:29:13Z</time>
      </trkpt>
      <trkpt lat="43.22599" lon="5.4828">
        <ele>437.2</ele>
        <time>2015-04-12T13:29:30Z</time>
      </trkpt>
      <trkpt lat="43.22604" lon="5.48303">
        <ele>436.5</ele>
        <time>2015-04-12T13:36:07Z</time>
      </trkpt>
      <trkpt lat="43.22612" lon="5.48324">
        <ele>436.2</ele>
        <time>2015-04-12T13:36:33Z</time>
      </trkpt>
      <trkpt lat="43.22621" lon="5.48345">
        <ele>435</ele>
        <time>2015-04-12T13:36:52Z</time>
      </trkpt>
      <trkpt lat="43.22633" lon="5.48363">
        <ele>433.5</ele>
        <time>2015-04-12T13:37:10Z</time>
      </trkpt>
      <trkpt lat="43.22643" lon="5.48382">
        <ele>432.8</ele>
        <time>2015-04-12T13:37:27Z</time>
      </trkpt>
      <trkpt lat="43.22654" lon="5.484">
        <ele>431</ele>
        <time>2015-04-12T13:37:43Z</time>
      </trkpt>
      <trkpt lat="43.22666" lon="5.48418">
        <ele>428.3</ele>
        <time>2015-04-12T13:37:59Z</time>
      </trkpt>
      <trkpt lat="43.22679" lon="5.48433">
        <ele>425.3</ele>
        <time>2015-04-12T13:38:16Z</time>
      </trkpt>
      <trkpt lat="43.22691" lon="5.48451">
        <ele>420.6</ele>
        <time>2015-04-12T13:38:34Z</time>
      </trkpt>
      <trkpt lat="43.22703" lon="5.48468">
        <ele>417.1</ele>
        <time>2015-04-12T13:38:52Z</time>
      </trkpt>
      <trkpt lat="43.22712" lon="5.48489">
        <ele>413.4</ele>
        <time>2015-04-12T13:39:09Z</time>
      </trkpt>
      <trkpt lat="43.22719" lon="5.4851">
        <ele>412.7</ele>
        <time>2015-04-12T13:39:26Z</time>
      </trkpt>
      <trkpt lat="43.22725" lon="5.48533">
        <ele>410.6</ele>
        <time>2015-04-12T13:39:42Z</time>
      </trkpt>
      <trkpt lat="43.22731" lon="5.48555">
        <ele>408.8</ele>
        <time>2015-04-12T13:39:57Z</time>
      </trkpt>
      <trkpt lat="43.22735" lon="5.48578">
        <ele>409.3</ele>
        <time>2015-04-12T13:40:12Z</time>
      </trkpt>
      <trkpt lat="43.22744" lon="5.486">
        <ele>407.7</ele>
        <time>2015-04-12T13:40:28Z</time>
      </trkpt>
      <trkpt lat="43.22752" lon="5.48621">
        <ele>405.4</ele>
        <time>2015-04-12T13:40:44Z</time>
      </trkpt>
      <trkpt lat="43.22759" lon="5.48643">
        <ele>402.8</ele>
        <time>2015-04-12T13:41:00Z</time>
      </trkpt>
      <trkpt lat="43.22766" lon="5.48665">
        <ele>401.3</ele>
        <time>2015-04-12T13:41:15Z</time>
      </trkpt>
      <trkpt lat="43.2277" lon="5.48689">
        <ele>400.2</ele>
        <time>2015-04-12T13:41:31Z</time>
      </trkpt>
      <trkpt lat="43.22773" lon="5.48713">
        <ele>396.7</ele>
        <time>2015-04-12T13:41:47Z</time>
      </trkpt>
      <trkpt lat="43.22776" lon="5.48737">
        <ele>395.8</ele>
        <time>2015-04-12T13:42:04Z</time>
      </trkpt>
      <trkpt lat="43.22782" lon="5.48759">
        <ele>393.1</ele>
        <time>2015-04-12T13:42:20Z</time>
      </trkpt>
      <trkpt lat="43.22786" lon="5.48781">
        <ele>391</ele>
        <time>2015-04-12T13:42:35Z</time>
      </trkpt>
      <trkpt lat="43.22788" lon="5.48805">
        <ele>389.3</ele>
        <time>2015-04-12T13:42:51Z</time>
      </trkpt>
      <trkpt lat="43.22791" lon="5.48829">
        <ele>385.7</ele>
        <time>2015-04-12T13:43:07Z</time>
      </trkpt>
      <trkpt lat="43.22796" lon="5.48852">
        <ele>382.8</ele>
        <time>2015-04-12T13:43:23Z</time>
      </trkpt>
      <trkpt lat="43.22797" lon="5.48875">
        <ele>380.4</ele>
        <time>2015-04-12T13:43:37Z</time>
      </trkpt>
      <trkpt lat="43.22799" lon="5.48898">
        <ele>378.5</ele>
        <time>2015-04-12T13:43:52Z</time>
      </trkpt>
      <trkpt lat="43.22801" lon="5.48922">
        <ele>377.8</ele>
        <time>2015-04-12T13:45:40Z</time>
      </trkpt>
      <trkpt lat="43.22803" lon="5.48946">
        <ele>376.7</ele>
        <time>2015-04-12T13:45:57Z</time>
      </trkpt>
      <trkpt lat="43.22805" lon="5.4897">
        <ele>374.8</ele>
        <time>2015-04-12T13:46:13Z</time>
      </trkpt>
      <trkpt lat="43.22805" lon="5.48994">
        <ele>373.3</ele>
        <time>2015-04-12T13:46:29Z</time>
      </trkpt>
      <trkpt lat="43.22805" lon="5.49017">
        <ele>369.6</ele>
        <time>2015-04-12T13:46:47Z</time>
      </trkpt>
      <trkpt lat="43.22805" lon="5.49042">
        <ele>366.8</ele>
        <time>2015-04-12T13:47:05Z</time>
      </trkpt>
      <trkpt lat="43.22809" lon="5.49065">
        <ele>363.8</ele>
        <time>2015-04-12T13:47:23Z</time>
      </trkpt>
      <trkpt lat="43.2281" lon="5.49088">
        <ele>361.2</ele>
        <time>2015-04-12T13:47:41Z</time>
      </trkpt>
      <trkpt lat="43.2281" lon="5.49112">
        <ele>358.5</ele>
        <time>2015-04-12T13:47:59Z</time>
      </trkpt>
      <trkpt lat="43.22809" lon="5.49136">
        <ele>354.7</ele>
        <time>2015-04-12T13:48:16Z</time>
      </trkpt>
      <trkpt lat="43.22809" lon="5.4916">
        <ele>351.3</ele>
        <time>2015-04-12T13:48:35Z</time>
      </trkpt>
      <trkpt lat="43.2281" lon="5.49184">
        <ele>347</ele>
        <time>2015-04-12T13:48:56Z</time>
      </trkpt>
      <trkpt lat="43.22808" lon="5.49209">
        <ele>343.8</ele>
        <time>2015-04-12T13:49:15Z</time>
      </trkpt>
      <trkpt lat="43.22802" lon="5.49232">
        <ele>340.9</ele>
        <time>2015-04-12T13:49:33Z</time>
      </trkpt>
      <trkpt lat="43.22797" lon="5.49255">
        <ele>339</ele>
        <time>2015-04-12T13:49:49Z</time>
      </trkpt>
      <trkpt lat="43.22791" lon="5.49276">
        <ele>337.2</ele>
        <time>2015-04-12T13:50:04Z</time>
      </trkpt>
      <trkpt lat="43.22788" lon="5.49299">
        <ele>334.8</ele>
        <time>2015-04-12T13:50:20Z</time>
      </trkpt>
      <trkpt lat="43.22782" lon="5.49321">
        <ele>333.1</ele>
        <time>2015-04-12T13:50:37Z</time>
      </trkpt>
      <trkpt lat="43.22778" lon="5.49344">
        <ele>330.8</ele>
        <time>2015-04-12T13:51:02Z</time>
      </trkpt>
      <trkpt lat="43.22775" lon="5.49368">
        <ele>328.1</ele>
        <time>2015-04-12T13:51:18Z</time>
      </trkpt>
      <trkpt lat="43.22771" lon="5.49391">
        <ele>323.9</ele>
        <time>2015-04-12T13:51:36Z</time>
      </trkpt>
      <trkpt lat="43.22763" lon="5.49412">
        <ele>321</ele>
        <time>2015-04-12T13:51:55Z</time>
      </trkpt>
      <trkpt lat="43.22757" lon="5.49434">
        <ele>317.3</ele>
        <time>2015-04-12T13:52:16Z</time>
      </trkpt>
      <trkpt lat="43.22752" lon="5.49458">
        <ele>312.2</ele>
        <time>2015-04-12T13:52:38Z</time>
      </trkpt>
      <trkpt lat="43.22749" lon="5.49482">
        <ele>308.9</ele>
        <time>2015-04-12T13:53:01Z</time>
      </trkpt>
      <trkpt lat="43.22749" lon="5.49507">
        <ele>304.3</ele>
        <time>2015-04-12T13:53:24Z</time>
      </trkpt>
      <trkpt lat="43.22748" lon="5.49531">
        <ele>300.7</ele>
        <time>2015-04-12T13:53:47Z</time>
      </trkpt>
      <trkpt lat="43.22753" lon="5.49553">
        <ele>298.1</ele>
        <time>2015-04-12T13:54:05Z</time>
      </trkpt>
      <trkpt lat="43.22755" lon="5.49577">
        <ele>295.6</ele>
        <time>2015-04-12T13:54:22Z</time>
      </trkpt>
      <trkpt lat="43.22754" lon="5.49601">
        <ele>291.8</ele>
        <time>2015-04-12T13:54:40Z</time>
      </trkpt>
      <trkpt lat="43.22755" lon="5.49624">
        <ele>289</ele>
        <time>2015-04-12T13:54:56Z</time>
      </trkpt>
      <trkpt lat="43.22755" lon="5.49647">
        <ele>286.1</ele>
        <time>2015-04-12T13:55:12Z</time>
      </trkpt>
      <trkpt lat="43.22751" lon="5.4967">
        <ele>284.4</ele>
        <time>2015-04-12T13:55:27Z</time>
      </trkpt>
      <trkpt lat="43.22748" lon="5.49694">
        <ele>283.4</ele>
        <time>2015-04-12T13:55:42Z</time>
      </trkpt>
      <trkpt lat="43.22746" lon="5.49717">
        <ele>283.7</ele>
        <time>2015-04-12T13:55:58Z</time>
      </trkpt>
      <trkpt lat="43.22741" lon="5.4974">
        <ele>284.8</ele>
        <time>2015-04-12T13:56:14Z</time>
      </trkpt>
      <trkpt lat="43.22735" lon="5.49762">
        <ele>287.8</ele>
        <time>2015-04-12T13:56:32Z</time>
      </trkpt>
      <trkpt lat="43.22725" lon="5.49783">
        <ele>289.3</ele>
        <time>2015-04-12T13:56:50Z</time>
      </trkpt>
      <trkpt lat="43.22715" lon="5.49802">
        <ele>288.7</ele>
        <time>2015-04-12T13:57:05Z</time>
      </trkpt>
      <trkpt lat="43.22705" lon="5.4982">
        <ele>288.1</ele>
        <time>2015-04-12T13:57:19Z</time>
      </trkpt>
      <trkpt lat="43.22695" lon="5.4984">
        <ele>287.2</ele>
        <time>2015-04-12T13:57:33Z</time>
      </trkpt>
      <trkpt lat="43.22687" lon="5.4986">
        <ele>286</ele>
        <time>2015-04-12T13:57:47Z</time>
      </trkpt>
      <trkpt lat="43.2268" lon="5.49882">
        <ele>287</ele>
        <time>2015-04-12T13:58:02Z</time>
      </trkpt>
      <trkpt lat="43.22678" lon="5.49905">
        <ele>287.7</ele>
        <time>2015-04-12T13:58:16Z</time>
      </trkpt>
      <trkpt lat="43.22682" lon="5.49929">
        <ele>287.7</ele>
        <time>2015-04-12T13:58:30Z</time>
      </trkpt>
      <trkpt lat="43.22689" lon="5.49951">
        <ele>287.5</ele>
        <time>2015-04-12T13:58:44Z</time>
      </trkpt>
      <trkpt lat="43.22697" lon="5.49973">
        <ele>288</ele>
        <time>2015-04-12T13:58:59Z</time>
      </trkpt>
      <trkpt lat="43.22705" lon="5.49993">
        <ele>287.6</ele>
        <time>2015-04-12T13:59:13Z</time>
      </trkpt>
      <trkpt lat="43.22714" lon="5.50014">
        <ele>287.3</ele>
        <time>2015-04-12T13:59:27Z</time>
      </trkpt>
      <trkpt lat="43.22723" lon="5.50034">
        <ele>289.1</ele>
        <time>2015-04-12T13:59:41Z</time>
      </trkpt>
      <trkpt lat="43.22732" lon="5.50054">
        <ele>288.4</ele>
        <time>2015-04-12T13:59:55Z</time>
      </trkpt>
      <trkpt lat="43.22742" lon="5.50073">
        <ele>288</ele>
        <time>2015-04-12T14:00:09Z</time>
      </trkpt>
      <trkpt lat="43.22751" lon="5.50092">
        <ele>287.5</ele>
        <time>2015-04-12T14:00:23Z</time>
      </trkpt>
      <trkpt lat="43.2276" lon="5.50113">
        <ele>286.9</ele>
        <time>2015-04-12T14:00:38Z</time>
      </trkpt>
      <trkpt lat="43.22765" lon="5.50136">
        <ele>285.3</ele>
        <time>2015-04-12T14:00:54Z</time>
      </trkpt>
      <trkpt lat="43.22767" lon="5.5016">
        <ele>282.8</ele>
        <time>2015-04-12T14:01:10Z</time>
      </trkpt>
      <trkpt lat="43.2277" lon="5.50184">
        <ele>280.6</ele>
        <time>2015-04-12T14:01:25Z</time>
      </trkpt>
      <trkpt lat="43.22769" lon="5.50208">
        <ele>278.4</ele>
        <time>2015-04-12T14:01:41Z</time>
      </trkpt>
      <trkpt lat="43.22765" lon="5.50232">
        <ele>277.1</ele>
        <time>2015-04-12T14:01:57Z</time>
      </trkpt>
      <trkpt lat="43.22762" lon="5.50255">
        <ele>275.1</ele>
        <time>2015-04-12T14:02:14Z</time>
      </trkpt>
      <trkpt lat="43.22757" lon="5.50279">
        <ele>272.7</ele>
        <time>2015-04-12T14:02:30Z</time>
      </trkpt>
      <trkpt lat="43.22752" lon="5.50303">
        <ele>269.9</ele>
        <time>2015-04-12T14:02:46Z</time>
      </trkpt>
      <trkpt lat="43.22748" lon="5.50327">
        <ele>268.3</ele>
        <time>2015-04-12T14:03:06Z</time>
      </trkpt>
      <trkpt lat="43.22746" lon="5.50351">
        <ele>266.4</ele>
        <time>2015-04-12T14:03:25Z</time>
      </trkpt>
      <trkpt lat="43.22753" lon="5.50373">
        <ele>264.6</ele>
        <time>2015-04-12T14:03:44Z</time>
      </trkpt>
      <trkpt lat="43.22765" lon="5.50391">
        <ele>262.5</ele>
        <time>2015-04-12T14:05:51Z</time>
      </trkpt>
      <trkpt lat="43.22765" lon="5.50391">
        <ele>262.5</ele>
        <time>2015-04-12T14:05:51Z</time>
      </trkpt>
      <trkpt lat="43.22746" lon="5.50351">
        <ele>266.3</ele>
        <time>2015-04-12T14:03:25Z</time>
      </trkpt>
      <trkpt lat="43.22753" lon="5.50373">
        <ele>264.5</ele>
        <time>2015-04-12T14:03:44Z</time>
      </trkpt>
      <trkpt lat="43.22765" lon="5.50391">
        <ele>262.5</ele>
        <time>2015-04-12T14:05:51Z</time>
      </trkpt>
      <trkpt lat="43.22765" lon="5.50391">
        <ele>262.5</ele>
        <time>2015-04-12T14:05:51Z</time>
      </trkpt>
      <trkpt lat="43.22765" lon="5.50391">
        <ele>262.5</ele>
        <time>2015-04-12T14:05:55Z</time>
      </trkpt>
    </trkseg>
  </trk>
</gpx>